Hlavní strana
METAR-TAF:

METAR-TAF

Letiště :

Bagdád, Irák

zeměpisná šířka: 33-15-45N, zeměpisná délka: 44-14-04E, výška: 35 m

Aktuální stav počasí

Zpráva byla vytvořena před 58 minutami, v 23:00 UTC
Východojihovýchodní vítr 9 kt
Teplota 14°C
Vlhkost vzduchu 72%
Tlak 1009 hPa
Viditelnost 10 km a více
Polojasno ve výšce 3000 ft

METAR: ORBI 122300Z 11009KT 9999 SCT030 14/09 Q1009 NOSIG

Čas: 02:58 (23:58 UTC)

Předpověď počasí

Zpráva byla vytvořena před 58 minutami, v 23:00 UTC
Předpověď platná od 13 v 00 UTC do 13 v 24 UTC
Jihovýchodní vítr 8 kt
Viditelnost: 7000 m
Polojasno ve výšce 3000 ft
Polojasno ve výšce 6000 ft
Pravděpodobnost 30% :
Dočasný
od 13 v 01 UTC do 13 v 05 UTC
Viditelnost: 4000 m
kouřmo, slabý déšť

TAF: ORBI 122300Z 1300/1324 14008KT 7000 SCT030 SCT060 PROB30 TEMPO 1301/1305 4000 BR -RA

Stav a předpovědi počasí z více než 4 000 letišť (zprávy METAR a TAF).

Červené a žluté tečky na mapě představují dostupné meteorologické stanice.

Když kurzor umístíte na tečku, zobrazí se název stanice.

Pak kliknutím zobrazíte stav a předpověď počasí.

Chcete-li změnit mapu, kliknutím na zelené tlačítko se znaménkem +mapu přiblížíte, kliknutím na zelené tlačítko se znaménkem – mapu oddálíte a kliknutím na zelené šipky přejdete na sousední mapy.


METAR-TAF: